createdAt,value
2022-10-17T00:00:48.720Z,2.70
2022-10-17T00:03:16.375Z,2.70
2022-10-17T00:05:48.444Z,3.28
2022-10-17T00:08:17.459Z,2.88
2022-10-17T00:10:44.849Z,2.88
2022-10-17T00:13:12.403Z,3.45
2022-10-17T00:15:43.790Z,3.58
2022-10-17T00:18:11.179Z,3.58
2022-10-17T00:20:38.499Z,3.60
2022-10-17T00:23:05.643Z,4.00
2022-10-17T00:25:32.805Z,4.28
2022-10-17T00:27:59.974Z,4.10
2022-10-17T00:30:27.149Z,4.13
2022-10-17T00:32:54.253Z,3.83
2022-10-17T00:35:21.461Z,3.80
2022-10-17T00:37:48.908Z,4.15
2022-10-17T00:40:18.150Z,4.00
2022-10-17T00:42:47.780Z,4.22
2022-10-17T00:45:27.138Z,4.03
2022-10-17T00:48:00.273Z,3.90
2022-10-17T00:50:28.466Z,4.00
2022-10-17T00:53:01.269Z,3.75
2022-10-17T00:55:33.430Z,3.33
2022-10-17T00:58:03.981Z,3.30
2022-10-17T01:00:31.838Z,3.75
2022-10-17T01:02:59.218Z,3.85
2022-10-17T01:05:26.578Z,3.75
2022-10-17T01:07:54.564Z,4.38
2022-10-17T01:13:13.594Z,3.80
2022-10-17T01:15:54.280Z,3.72
2022-10-17T01:19:02.855Z,4.00
2022-10-17T01:21:56.918Z,3.95
2022-10-17T01:24:45.795Z,3.65
2022-10-17T01:27:48.669Z,4.20
2022-10-17T01:30:30.846Z,4.07
2022-10-17T01:33:13.120Z,3.65
2022-10-17T01:35:54.891Z,3.65
2022-10-17T01:38:27.508Z,3.67
2022-10-17T01:41:05.836Z,3.83
2022-10-17T01:43:44.872Z,3.45
2022-10-17T01:46:25.308Z,3.50
2022-10-17T01:48:54.069Z,3.70
2022-10-17T01:51:28.729Z,3.38
2022-10-17T01:54:05.290Z,3.10
2022-10-17T01:56:35.813Z,3.45
2022-10-17T01:59:11.750Z,3.40
2022-10-17T02:01:43.557Z,3.15
2022-10-17T02:04:18.891Z,3.30
2022-10-17T02:06:46.777Z,3.33
2022-10-17T02:09:26.283Z,3.45
2022-10-17T02:12:17.016Z,3.45
2022-10-17T02:14:50.593Z,3.28
2022-10-17T02:17:30.933Z,3.78
2022-10-17T02:20:13.480Z,3.60
2022-10-17T02:23:05.133Z,2.90
2022-10-17T02:25:35.324Z,3.30
2022-10-17T02:28:35.084Z,3.45
2022-10-17T02:31:24.842Z,2.90
2022-10-17T02:33:59.889Z,2.72
2022-10-17T02:36:34.799Z,2.67
2022-10-17T02:39:04.312Z,2.47
2022-10-17T02:41:33.201Z,2.55
2022-10-17T02:44:03.659Z,3.15
2022-10-17T02:46:32.992Z,2.80
2022-10-17T02:49:11.850Z,2.72
2022-10-17T02:51:50.182Z,2.85
2022-10-17T02:54:25.105Z,2.78
2022-10-17T02:57:02.885Z,2.75
2022-10-17T03:02:06.212Z,2.58
2022-10-17T03:04:34.380Z,2.33
2022-10-17T03:07:01.539Z,2.58
2022-10-17T03:09:28.950Z,2.05
2022-10-17T03:11:56.194Z,2.25
2022-10-17T03:14:24.123Z,2.30
2022-10-17T03:16:52.138Z,2.10
2022-10-17T03:19:19.831Z,1.90
2022-10-17T03:21:46.934Z,2.10
2022-10-17T03:24:14.122Z,2.20
2022-10-17T03:26:41.522Z,2.47
2022-10-17T03:29:08.963Z,2.40
2022-10-17T03:31:36.740Z,2.28
2022-10-17T03:34:05.923Z,2.30
2022-10-17T03:36:33.091Z,2.40
2022-10-17T03:39:01.596Z,2.45
2022-10-17T03:41:29.620Z,2.45
2022-10-17T03:43:56.685Z,2.28
2022-10-17T03:46:24.576Z,2.67
2022-10-17T03:48:52.049Z,2.40
2022-10-17T03:51:19.502Z,2.75
2022-10-17T03:53:51.913Z,2.60
2022-10-17T03:56:21.304Z,2.28
2022-10-17T03:58:56.765Z,2.63
2022-10-17T04:01:24.356Z,2.40
2022-10-17T04:03:53.824Z,2.10
2022-10-17T04:06:21.796Z,3.00
2022-10-17T04:08:49.515Z,3.08
2022-10-17T04:11:32.147Z,2.50
2022-10-17T04:14:01.123Z,2.50
2022-10-17T04:16:29.971Z,3.58
2022-10-17T04:19:00.909Z,2.78
2022-10-17T04:21:31.895Z,3.10
2022-10-17T04:24:04.448Z,2.80
2022-10-17T04:27:00.633Z,2.50
2022-10-17T04:29:33.013Z,2.50
2022-10-17T04:32:12.414Z,2.55
2022-10-17T04:34:54.229Z,2.42
2022-10-17T04:37:23.290Z,2.50
2022-10-17T04:39:52.914Z,2.70
2022-10-17T04:42:20.759Z,2.50
2022-10-17T04:44:48.949Z,2.47
2022-10-17T04:47:18.434Z,2.53
2022-10-17T04:49:46.561Z,2.30
2022-10-17T04:52:16.091Z,2.30
2022-10-17T04:54:44.971Z,2.60
2022-10-17T04:57:14.214Z,2.85
2022-10-17T04:59:44.372Z,2.70
2022-10-17T05:02:18.325Z,2.70
2022-10-17T05:04:46.716Z,2.67
2022-10-17T05:07:14.996Z,2.72
2022-10-17T05:09:47.871Z,2.75
2022-10-17T05:12:15.415Z,2.67
2022-10-17T05:14:45.214Z,2.85
2022-10-17T05:17:12.599Z,3.08
2022-10-17T05:19:39.901Z,2.83
2022-10-17T05:22:08.483Z,2.60
2022-10-17T05:24:38.733Z,2.45
2022-10-17T05:27:06.275Z,3.22
2022-10-17T05:29:34.842Z,3.20
2022-10-17T05:32:09.564Z,3.10
2022-10-17T05:34:36.687Z,3.47
2022-10-17T05:37:03.880Z,2.83
2022-10-17T05:39:32.408Z,3.30
2022-10-17T05:41:59.963Z,3.28
2022-10-17T05:44:27.412Z,3.33
2022-10-17T05:46:58.135Z,3.22
2022-10-17T05:49:33.318Z,3.40
2022-10-17T05:52:12.198Z,3.38
2022-10-17T05:54:59.645Z,2.60
2022-10-17T05:57:27.801Z,2.70
2022-10-17T05:59:55.317Z,3.00
2022-10-17T06:02:23.146Z,3.25
2022-10-17T06:04:50.710Z,2.50
2022-10-17T06:07:22.686Z,3.45
2022-10-17T06:09:49.952Z,2.80
2022-10-17T06:12:17.156Z,2.35
2022-10-17T06:14:45.349Z,2.70
2022-10-17T06:17:16.212Z,2.90
2022-10-17T06:19:47.671Z,2.80
2022-10-17T06:22:15.885Z,2.95
2022-10-17T06:24:43.634Z,2.35
2022-10-17T06:27:12.253Z,2.70
2022-10-17T06:29:41.439Z,2.90
2022-10-17T06:32:12.586Z,2.78
2022-10-17T06:34:43.328Z,2.83
2022-10-17T06:37:11.267Z,2.72
2022-10-17T06:39:40.596Z,2.97
2022-10-17T06:42:13.768Z,2.80
2022-10-17T06:44:54.120Z,3.00
2022-10-17T06:47:39.959Z,2.90
2022-10-17T06:50:39.552Z,3.40
2022-10-17T06:53:12.497Z,3.47
2022-10-17T06:55:52.210Z,3.30
2022-10-17T06:58:26.465Z,2.78
2022-10-17T07:01:13.768Z,3.00
2022-10-17T07:03:42.028Z,3.17
2022-10-17T07:06:11.351Z,3.95
2022-10-17T07:08:45.142Z,3.08
2022-10-17T07:13:43.921Z,3.03
2022-10-17T07:16:12.461Z,3.17
2022-10-17T07:18:42.264Z,3.00
2022-10-17T07:21:09.963Z,2.90
2022-10-17T07:23:48.491Z,2.85
2022-10-17T07:26:18.197Z,2.88
2022-10-17T07:28:47.049Z,2.70
2022-10-17T07:31:45.589Z,2.90
2022-10-17T07:34:12.985Z,2.72
2022-10-17T07:36:40.776Z,2.90
2022-10-17T07:39:09.498Z,2.70
2022-10-17T07:41:41.166Z,2.60
2022-10-17T07:44:08.768Z,3.00
2022-10-17T07:46:42.633Z,3.47
2022-10-17T07:49:09.897Z,2.90
2022-10-17T07:51:37.518Z,3.10
2022-10-17T07:54:06.394Z,3.40
2022-10-17T07:56:33.556Z,2.95
2022-10-17T07:59:02.803Z,3.40
2022-10-17T08:01:32.671Z,3.10
2022-10-17T08:03:59.949Z,3.03
2022-10-17T08:06:27.225Z,2.97
2022-10-17T08:08:55.450Z,3.20
2022-10-17T08:11:23.230Z,2.97
2022-10-17T08:13:50.308Z,3.00
2022-10-17T08:16:17.477Z,3.10
2022-10-17T08:18:44.732Z,2.72
2022-10-17T08:21:13.489Z,3.58
2022-10-17T08:23:40.643Z,2.83
2022-10-17T08:26:10.654Z,2.83
2022-10-17T08:28:39.793Z,2.60
2022-10-17T08:31:15.076Z,2.58
2022-10-17T08:33:42.698Z,2.70
2022-10-17T08:36:12.539Z,2.92
2022-10-17T08:38:43.124Z,2.90
2022-10-17T08:41:20.342Z,3.20
2022-10-17T08:43:53.000Z,2.85
2022-10-17T08:46:20.832Z,2.83
2022-10-17T08:48:51.322Z,2.70
2022-10-17T08:51:23.035Z,2.88
2022-10-17T08:54:00.928Z,3.22
2022-10-17T08:56:48.061Z,3.05
2022-10-17T08:59:31.479Z,3.13
2022-10-17T09:02:20.388Z,3.50
2022-10-17T09:05:23.994Z,3.55
2022-10-17T09:08:05.018Z,3.05
2022-10-17T09:10:46.242Z,3.15
2022-10-17T09:13:41.161Z,2.58
2022-10-17T09:16:20.302Z,2.55
2022-10-17T09:18:58.916Z,3.80
2022-10-17T09:21:43.121Z,2.70
2022-10-17T09:24:27.419Z,3.05
2022-10-17T09:26:54.838Z,3.30
2022-10-17T09:29:25.125Z,2.83
2022-10-17T09:32:05.273Z,2.95
2022-10-17T09:34:33.133Z,2.83
2022-10-17T09:37:02.353Z,3.15
2022-10-17T09:39:32.138Z,3.10
2022-10-17T09:42:01.463Z,2.80
2022-10-17T09:44:34.547Z,3.08
2022-10-17T09:47:20.494Z,3.13
2022-10-17T09:49:49.281Z,2.42
2022-10-17T09:52:47.757Z,2.90
2022-10-17T09:55:26.195Z,2.80
2022-10-17T09:57:57.042Z,3.25
2022-10-17T10:00:30.726Z,2.67
2022-10-17T10:03:26.374Z,3.45
2022-10-17T10:06:02.598Z,2.78
2022-10-17T10:08:33.661Z,3.00
2022-10-17T10:11:06.582Z,3.13
2022-10-17T10:13:35.465Z,3.25
2022-10-17T10:16:21.850Z,2.97
2022-10-17T10:18:51.224Z,2.97
2022-10-17T10:21:24.253Z,3.00
2022-10-17T10:24:13.394Z,2.88
2022-10-17T10:26:42.734Z,2.90
2022-10-17T10:29:35.599Z,2.70
2022-10-17T10:32:29.956Z,3.03
2022-10-17T10:37:33.998Z,3.08
2022-10-17T10:40:19.861Z,2.80
2022-10-17T10:42:50.214Z,3.13
2022-10-17T10:45:46.895Z,3.00
2022-10-17T10:48:21.654Z,2.88
2022-10-17T10:51:03.476Z,3.03
2022-10-17T10:53:48.622Z,3.20
2022-10-17T10:56:22.893Z,2.85
2022-10-17T10:59:04.747Z,2.92
2022-10-17T11:01:40.027Z,3.45
2022-10-17T11:04:12.790Z,3.30
2022-10-17T11:06:42.083Z,3.08
2022-10-17T11:09:43.049Z,3.25
2022-10-17T11:12:28.015Z,2.97
2022-10-17T11:15:03.257Z,3.17
2022-10-17T11:17:39.891Z,2.70
2022-10-17T11:20:23.049Z,2.72
2022-10-17T11:22:57.760Z,2.70
2022-10-17T11:25:31.831Z,2.78
2022-10-17T11:28:04.479Z,3.10
2022-10-17T11:33:18.743Z,3.35
2022-10-17T11:35:49.745Z,3.72
2022-10-17T11:38:38.309Z,3.45
2022-10-17T11:41:09.397Z,3.72
2022-10-17T11:43:50.297Z,3.33
2022-10-17T11:46:23.800Z,3.58
2022-10-17T11:49:06.186Z,2.72
2022-10-17T11:52:01.307Z,2.90
2022-10-17T11:54:39.043Z,3.05
2022-10-17T11:57:27.328Z,3.05
2022-10-17T12:00:03.141Z,3.03
2022-10-17T12:03:03.016Z,2.88
2022-10-17T12:05:36.226Z,3.22
2022-10-17T12:08:31.283Z,3.15
2022-10-17T12:11:05.074Z,3.25
2022-10-17T12:13:32.480Z,7.00
2022-10-17T12:16:21.270Z,5.40
2022-10-17T12:18:52.248Z,4.32
2022-10-17T12:21:19.426Z,4.15
2022-10-17T12:23:55.124Z,4.22
2022-10-17T12:26:27.602Z,4.55
2022-10-17T12:28:56.401Z,4.60
2022-10-17T12:31:29.741Z,4.78
2022-10-17T12:34:02.953Z,5.45
2022-10-17T12:36:29.956Z,4.30
2022-10-17T12:39:03.001Z,4.93
2022-10-17T12:41:39.282Z,5.10
2022-10-17T12:44:15.382Z,4.47
2022-10-17T12:46:58.278Z,4.85
2022-10-17T12:49:53.241Z,5.25
2022-10-17T12:52:23.007Z,4.70
2022-10-17T12:55:13.425Z,4.95
2022-10-17T12:58:10.949Z,4.65
2022-10-17T13:01:05.402Z,4.40
2022-10-17T13:03:44.188Z,4.60
2022-10-17T13:06:20.486Z,5.20
2022-10-17T13:08:57.705Z,5.15
2022-10-17T13:11:30.595Z,6.80
2022-10-17T13:14:00.781Z,7.63
2022-10-17T13:16:51.215Z,8.23
2022-10-17T13:19:23.489Z,7.43
2022-10-17T13:21:58.692Z,6.95
2022-10-17T13:24:33.757Z,6.32
2022-10-17T13:27:01.974Z,6.57
2022-10-17T13:29:31.954Z,5.63
2022-10-17T13:32:02.391Z,6.30
2022-10-17T13:34:31.382Z,6.30
2022-10-17T13:37:05.485Z,7.05
2022-10-17T13:39:58.142Z,6.97
2022-10-17T13:42:30.843Z,6.97
2022-10-17T13:44:59.366Z,6.90
2022-10-17T13:47:29.479Z,6.45
2022-10-17T13:49:58.954Z,6.22
2022-10-17T13:52:29.634Z,5.90
2022-10-17T13:55:17.522Z,6.82
2022-10-17T13:57:44.983Z,5.75
2022-10-17T14:00:30.337Z,5.88
2022-10-17T14:02:57.450Z,6.07
2022-10-17T14:05:24.561Z,5.53
2022-10-17T14:08:22.967Z,6.50
2022-10-17T14:10:49.234Z,6.28
2022-10-17T14:13:27.797Z,5.65
2022-10-17T14:15:59.211Z,6.10
2022-10-17T14:18:34.934Z,6.50
2022-10-17T14:23:53.511Z,6.30
2022-10-17T14:26:23.168Z,7.13
2022-10-17T14:29:04.841Z,6.60
2022-10-17T14:31:36.796Z,6.53
2022-10-17T14:34:04.902Z,7.75
2022-10-17T14:36:42.041Z,7.55
2022-10-17T14:39:20.221Z,7.35
2022-10-17T14:41:48.039Z,7.55
2022-10-17T14:44:25.771Z,7.43
2022-10-17T14:47:18.363Z,7.47
2022-10-17T14:49:51.449Z,8.00
2022-10-17T14:52:19.030Z,7.57
2022-10-17T14:54:50.422Z,7.75
2022-10-17T14:57:35.126Z,6.90
2022-10-17T15:00:02.403Z,7.00
2022-10-17T15:02:30.967Z,7.95
2022-10-17T15:04:58.377Z,7.75
2022-10-17T15:07:25.460Z,8.02
2022-10-17T15:09:54.175Z,7.45
2022-10-17T15:12:24.941Z,8.98
2022-10-17T15:14:53.327Z,8.35
2022-10-17T15:17:32.819Z,9.45
2022-10-17T15:20:00.310Z,9.15
2022-10-17T15:22:27.724Z,8.80
2022-10-17T15:24:55.075Z,8.88
2022-10-17T15:27:24.080Z,10.35
2022-10-17T15:29:53.010Z,9.55
2022-10-17T15:32:20.439Z,10.57
2022-10-17T15:34:47.638Z,11.63
2022-10-17T15:37:25.691Z,10.32
2022-10-17T15:39:54.631Z,10.85
2022-10-17T15:42:31.434Z,10.63
2022-10-17T15:44:58.727Z,10.85
2022-10-17T15:47:31.352Z,9.43
2022-10-17T15:50:00.582Z,11.48
2022-10-17T15:52:28.065Z,12.98
2022-10-17T15:54:57.300Z,10.38
2022-10-17T15:57:30.319Z,10.88
2022-10-17T15:59:59.650Z,8.90
2022-10-17T16:02:26.979Z,10.77
2022-10-17T16:04:54.070Z,10.10
2022-10-17T16:07:21.710Z,8.70
2022-10-17T16:09:48.880Z,8.73
2022-10-17T16:12:18.940Z,9.18
2022-10-17T16:14:46.061Z,9.70
2022-10-17T16:17:17.211Z,8.93
2022-10-17T16:19:44.845Z,8.75
2022-10-17T16:22:27.710Z,8.55
2022-10-17T16:24:58.866Z,9.13
2022-10-17T16:27:26.494Z,8.82
2022-10-17T16:29:53.570Z,10.75
2022-10-17T16:32:20.698Z,10.90
2022-10-17T16:34:47.783Z,8.55
2022-10-17T16:37:14.931Z,9.80
2022-10-17T16:39:41.986Z,9.02
2022-10-17T16:42:09.080Z,9.02
2022-10-17T16:44:38.671Z,9.60
2022-10-17T16:47:05.720Z,9.18
2022-10-17T16:49:32.840Z,9.98
2022-10-17T16:52:00.023Z,9.10
2022-10-17T16:54:27.265Z,9.57
2022-10-17T16:56:54.387Z,9.82
2022-10-17T16:59:21.805Z,9.27
2022-10-17T17:01:49.010Z,11.20
2022-10-17T17:04:17.050Z,10.10
2022-10-17T17:09:12.743Z,9.23
2022-10-17T17:11:39.865Z,8.90
2022-10-17T17:14:10.296Z,10.18
2022-10-17T17:16:37.393Z,9.25
2022-10-17T17:19:07.500Z,8.48
2022-10-17T17:21:35.104Z,8.65
2022-10-17T17:24:04.444Z,9.20
2022-10-17T17:26:37.305Z,9.25
2022-10-17T17:29:06.689Z,10.07
2022-10-17T17:31:39.926Z,9.05
2022-10-17T17:34:07.268Z,8.75
2022-10-17T17:36:36.550Z,9.30
2022-10-17T17:39:10.388Z,11.10
2022-10-17T17:41:38.320Z,10.32
2022-10-17T17:44:05.942Z,9.60
2022-10-17T17:46:33.445Z,9.20
2022-10-17T17:49:00.807Z,9.10
2022-10-17T17:51:29.366Z,8.93
2022-10-17T17:53:57.223Z,11.88
2022-10-17T17:56:27.653Z,11.63
2022-10-17T17:58:57.890Z,12.32
2022-10-17T18:01:27.457Z,12.02
2022-10-17T18:03:55.913Z,13.00
2022-10-17T18:06:23.425Z,12.93
2022-10-17T18:08:53.174Z,11.60
2022-10-17T18:11:22.023Z,14.00
2022-10-17T18:14:00.678Z,13.48
2022-10-17T18:16:29.377Z,12.55
2022-10-17T18:19:00.317Z,16.83
2022-10-17T18:21:29.779Z,13.98
2022-10-17T18:23:57.387Z,16.75
2022-10-17T18:26:24.533Z,14.23
2022-10-17T18:28:51.976Z,16.73
2022-10-17T18:31:25.179Z,16.83
2022-10-17T18:33:53.320Z,15.75
2022-10-17T18:36:21.518Z,15.45
2022-10-17T18:38:48.834Z,14.90
2022-10-17T18:41:19.152Z,16.55
2022-10-17T18:43:47.670Z,14.63
2022-10-17T18:46:18.556Z,10.85
2022-10-17T18:48:47.205Z,7.97
2022-10-17T18:51:16.995Z,7.50
2022-10-17T18:53:46.348Z,5.60
2022-10-17T18:56:14.241Z,4.97
2022-10-17T18:58:41.853Z,5.10
2022-10-17T19:01:15.478Z,3.90
2022-10-17T19:03:44.009Z,3.90
2022-10-17T19:06:13.237Z,3.45
2022-10-17T19:08:42.217Z,3.50
2022-10-17T19:11:14.141Z,2.75
2022-10-17T19:13:42.742Z,3.13
2022-10-17T19:16:12.391Z,3.08
2022-10-17T19:18:42.627Z,2.67
2022-10-17T19:21:11.685Z,2.90
2022-10-17T19:23:39.159Z,2.50
2022-10-17T19:26:12.023Z,2.35
2022-10-17T19:28:44.535Z,2.58
2022-10-17T19:31:15.417Z,2.67
2022-10-17T19:33:44.841Z,2.87
2022-10-17T19:36:13.232Z,2.75
2022-10-17T19:38:40.430Z,2.60
2022-10-17T19:41:09.845Z,3.60
2022-10-17T19:43:38.490Z,5.53
2022-10-17T19:46:08.841Z,4.05
2022-10-17T19:48:36.862Z,3.72
2022-10-17T19:51:05.575Z,2.70
2022-10-17T19:53:33.515Z,3.05
2022-10-17T19:56:00.768Z,2.42
2022-10-17T19:58:28.545Z,2.80
2022-10-17T20:01:03.314Z,2.60
2022-10-17T20:03:30.395Z,2.13
2022-10-17T20:05:57.498Z,2.20
2022-10-17T20:10:51.699Z,2.22
2022-10-17T20:13:18.787Z,2.25
2022-10-17T20:15:56.307Z,2.10
2022-10-17T20:18:24.264Z,1.83
2022-10-17T20:20:51.491Z,2.50
2022-10-17T20:23:22.761Z,2.53
2022-10-17T20:26:06.833Z,2.50
2022-10-17T20:28:46.354Z,3.15
2022-10-17T20:31:14.269Z,3.53
2022-10-17T20:33:41.759Z,2.83
2022-10-17T20:36:10.799Z,2.88
2022-10-17T20:38:38.549Z,3.13
2022-10-17T20:41:08.741Z,3.15
2022-10-17T20:43:37.138Z,2.85
2022-10-17T20:46:22.863Z,2.45
2022-10-17T20:48:55.185Z,2.42
2022-10-17T20:51:22.479Z,3.13
2022-10-17T20:53:49.733Z,2.55
2022-10-17T20:56:23.322Z,2.80
2022-10-17T20:58:55.149Z,2.85
2022-10-17T21:01:23.251Z,2.50
2022-10-17T21:03:50.658Z,3.10
2022-10-17T21:06:18.783Z,3.30
2022-10-17T21:08:47.242Z,2.30
2022-10-17T21:11:19.913Z,3.60
2022-10-17T21:13:48.053Z,2.95
2022-10-17T21:16:19.101Z,2.40
2022-10-17T21:18:46.427Z,2.28
2022-10-17T21:21:22.653Z,2.40
2022-10-17T21:23:51.430Z,2.13
2022-10-17T21:26:19.064Z,2.33
2022-10-17T21:28:48.108Z,2.60
2022-10-17T21:31:23.835Z,2.47
2022-10-17T21:33:53.709Z,2.55
2022-10-17T21:36:22.216Z,2.80
2022-10-17T21:38:50.806Z,2.63
2022-10-17T21:41:19.858Z,2.72
2022-10-17T21:43:48.222Z,2.92
2022-10-17T21:46:19.519Z,3.30
2022-10-17T21:48:47.969Z,3.60
2022-10-17T21:51:17.220Z,3.90
2022-10-17T21:53:44.542Z,4.20
2022-10-17T21:56:18.328Z,4.55
2022-10-17T21:58:45.842Z,4.68
2022-10-17T22:01:17.508Z,5.63
2022-10-17T22:03:49.826Z,4.90
2022-10-17T22:09:24.888Z,5.50
2022-10-17T22:11:55.225Z,5.65
2022-10-17T22:14:24.719Z,6.55
2022-10-17T22:16:51.873Z,6.65
2022-10-17T22:19:22.522Z,6.75
2022-10-17T22:21:53.118Z,7.05
2022-10-17T22:26:48.583Z,6.75
2022-10-17T22:29:15.734Z,7.70
2022-10-17T22:31:42.843Z,6.72
2022-10-17T22:34:12.145Z,6.50
2022-10-17T22:36:39.630Z,6.97
2022-10-17T22:39:06.677Z,6.50
2022-10-17T22:41:33.911Z,7.05
2022-10-17T22:44:01.342Z,6.05
2022-10-17T22:46:28.562Z,6.68
2022-10-17T22:48:55.867Z,8.70
2022-10-17T22:53:51.413Z,6.72
2022-10-17T22:56:20.692Z,7.32
2022-10-17T22:58:48.177Z,6.88
2022-10-17T23:01:18.615Z,8.18
2022-10-17T23:03:45.991Z,6.97
2022-10-17T23:06:13.723Z,7.20
2022-10-17T23:08:41.821Z,7.18
2022-10-17T23:11:09.645Z,7.63
2022-10-17T23:13:37.512Z,7.75
2022-10-17T23:16:05.027Z,8.02
2022-10-17T23:18:32.648Z,7.60
2022-10-17T23:20:59.843Z,8.27
2022-10-17T23:23:27.068Z,7.68
2022-10-17T23:25:54.278Z,8.57
2022-10-17T23:28:21.433Z,8.02
2022-10-17T23:30:48.563Z,8.23
2022-10-17T23:33:15.668Z,8.13
2022-10-17T23:35:42.753Z,9.27
2022-10-17T23:38:10.133Z,8.98
2022-10-17T23:40:37.453Z,9.55
2022-10-17T23:43:04.726Z,9.95
2022-10-17T23:45:35.980Z,8.23
2022-10-17T23:48:05.325Z,9.45
2022-10-17T23:50:32.420Z,10.93
2022-10-17T23:52:59.526Z,9.95
2022-10-17T23:55:26.616Z,10.25
2022-10-17T23:57:53.669Z,10.43
